createdAt,value
2023-04-10T00:01:05.411Z,98470.23
2023-04-10T00:05:30.395Z,98469.39
2023-04-10T00:10:10.305Z,98466.64
2023-04-10T00:14:30.628Z,98461.97
2023-04-10T00:18:39.350Z,98462.81
2023-04-10T00:23:23.670Z,98462.70
2023-04-10T00:28:07.673Z,98457.10
2023-04-10T00:32:33.474Z,98450.36
2023-04-10T00:36:43.855Z,98447.58
2023-04-10T00:41:05.609Z,98447.44
2023-04-10T00:45:33.885Z,98441.11
2023-04-10T00:50:03.981Z,98439.94
2023-04-10T00:54:28.651Z,98439.66
2023-04-10T00:58:32.968Z,98440.13
2023-04-10T01:02:57.991Z,98440.23
2023-04-10T01:07:51.237Z,98438.04
2023-04-10T01:12:00.158Z,98441.81
2023-04-10T01:16:59.793Z,98441.27
2023-04-10T01:21:44.010Z,98439.67
2023-04-10T01:26:21.427Z,98438.52
2023-04-10T01:30:53.400Z,98441.39
2023-04-10T01:35:28.026Z,98444.59
2023-04-10T01:39:14.673Z,98449.94
2023-04-10T01:43:20.862Z,98455.94
2023-04-10T01:47:33.092Z,98456.14
2023-04-10T01:51:58.534Z,98459.06
2023-04-10T01:56:12.073Z,98457.49
2023-04-10T02:00:16.866Z,98458.74
2023-04-10T02:04:25.721Z,98459.11
2023-04-10T02:08:56.577Z,98458.95
2023-04-10T02:13:12.414Z,98455.46
2023-04-10T02:17:36.882Z,98453.30
2023-04-10T02:22:08.394Z,98456.17
2023-04-10T02:26:39.973Z,98457.98
2023-04-10T02:30:56.055Z,98456.19
2023-04-10T02:35:00.171Z,98451.52
2023-04-10T02:39:47.428Z,98446.41
2023-04-10T02:44:08.274Z,98445.16
2023-04-10T02:48:20.943Z,98451.87
2023-04-10T03:00:48.767Z,98453.49
2023-04-10T03:05:00.979Z,98452.40
2023-04-10T03:09:29.267Z,98451.13
2023-04-10T03:13:49.497Z,98445.67
2023-04-10T03:18:21.386Z,98448.72
2023-04-10T03:22:33.245Z,98449.91
2023-04-10T03:26:46.538Z,98457.92
2023-04-10T03:31:33.434Z,98457.63
2023-04-10T03:36:17.749Z,98458.30
2023-04-10T03:40:50.477Z,98460.70
2023-04-10T03:45:31.129Z,98458.73
2023-04-10T03:50:14.976Z,98457.54
2023-04-10T03:54:38.906Z,98450.66
2023-04-10T03:58:52.896Z,98452.08
2023-04-10T04:03:19.087Z,98457.46
2023-04-10T04:07:43.521Z,98452.83
2023-04-10T04:12:23.631Z,98444.39
2023-04-10T04:16:47.940Z,98447.80
2023-04-10T04:21:08.162Z,98450.81
2023-04-10T04:25:39.839Z,98457.29
2023-04-10T04:29:45.918Z,98463.14
2023-04-10T04:33:54.783Z,98463.81
2023-04-10T04:37:38.138Z,98460.38
2023-04-10T04:41:44.666Z,98467.43
2023-04-10T04:45:57.147Z,98473.10
2023-04-10T04:50:30.052Z,98474.16
2023-04-10T04:54:58.987Z,98482.95
2023-04-10T04:59:07.288Z,98484.52
2023-04-10T05:03:31.737Z,98483.55
2023-04-10T05:07:57.425Z,98483.71
2023-04-10T05:12:03.624Z,98481.98
2023-04-10T05:16:13.593Z,98480.48
2023-04-10T05:20:46.218Z,98487.39
2023-04-10T05:25:18.468Z,98493.00
2023-04-10T05:29:38.702Z,98501.61
2023-04-10T05:34:00.038Z,98499.77
2023-04-10T05:38:12.604Z,98502.87
2023-04-10T05:42:29.748Z,98500.31
2023-04-10T05:46:51.279Z,98503.43
2023-04-10T05:51:31.644Z,98502.86
2023-04-10T05:55:56.006Z,98507.73
2023-04-10T06:00:18.501Z,98505.69
2023-04-10T06:04:42.797Z,98507.86
2023-04-10T06:08:56.865Z,98510.13
2023-04-10T06:13:05.310Z,98510.58
2023-04-10T06:17:28.821Z,98513.86
2023-04-10T06:22:09.153Z,98516.65
2023-04-10T06:26:24.868Z,98517.00
2023-04-10T06:30:49.802Z,98516.09
2023-04-10T06:35:07.136Z,98517.96
2023-04-10T06:39:31.075Z,98512.98
2023-04-10T06:43:39.530Z,98510.74
2023-04-10T06:47:44.525Z,98515.69
2023-04-10T06:52:13.399Z,98513.92
2023-04-10T06:56:29.428Z,98507.73
2023-04-10T07:01:01.513Z,98515.32
2023-04-10T07:05:27.179Z,98520.39
2023-04-10T07:09:37.125Z,98521.55
2023-04-10T07:14:01.422Z,98517.45
2023-04-10T07:18:22.301Z,98514.52
2023-04-10T07:22:28.439Z,98515.10
2023-04-10T07:26:51.659Z,98518.79
2023-04-10T07:31:15.774Z,98524.52
2023-04-10T07:35:24.438Z,98532.67
2023-04-10T07:39:22.321Z,98534.19
2023-04-10T07:44:06.811Z,98532.71
2023-04-10T07:48:49.865Z,98531.20
2023-04-10T07:53:14.876Z,98534.77
2023-04-10T07:58:00.364Z,98536.61
2023-04-10T08:02:33.732Z,98537.02
2023-04-10T08:06:38.398Z,98537.77
2023-04-10T08:11:06.497Z,98539.60
2023-04-10T08:15:27.379Z,98528.52
2023-04-10T08:19:59.043Z,98521.95
2023-04-10T08:24:33.735Z,98514.81
2023-04-10T08:29:18.020Z,98514.98
2023-04-10T08:33:30.365Z,98517.48
2023-04-10T08:37:43.146Z,98519.02
2023-04-10T08:42:14.328Z,98520.47
2023-04-10T08:46:58.480Z,98517.97
2023-04-10T08:51:26.335Z,98518.59
2023-04-10T08:55:56.048Z,98517.76
2023-04-10T09:00:28.172Z,98517.23
2023-04-10T09:04:41.810Z,98514.04
2023-04-10T09:12:55.147Z,98514.04
2023-04-10T09:17:19.473Z,98511.63
2023-04-10T09:21:35.412Z,98510.39
2023-04-10T09:25:21.173Z,98506.73
2023-04-10T09:29:57.829Z,98512.18
2023-04-10T09:34:03.271Z,98503.89
2023-04-10T09:37:59.687Z,98501.52
2023-04-10T09:42:33.255Z,98504.42
2023-04-10T09:47:04.407Z,98499.86
2023-04-10T09:51:36.740Z,98503.09
2023-04-10T09:55:49.431Z,98499.40
2023-04-10T10:00:23.032Z,98495.06
2023-04-10T10:05:02.601Z,98492.42
2023-04-10T10:09:10.711Z,98489.64
2023-04-10T10:13:35.833Z,98489.51
2023-04-10T10:18:04.012Z,98492.88
2023-04-10T10:22:30.399Z,98489.19
2023-04-10T10:27:02.342Z,98481.58
2023-04-10T10:31:47.098Z,98471.54
2023-04-10T10:36:18.844Z,98469.57
2023-04-10T10:41:00.483Z,98467.20
2023-04-10T10:45:17.224Z,98464.48
2023-04-10T10:49:24.365Z,98462.47
2023-04-10T10:53:35.829Z,98470.88
2023-04-10T10:58:02.710Z,98467.05
2023-04-10T11:02:23.200Z,98465.58
2023-04-10T11:06:33.225Z,98463.24
2023-04-10T11:11:11.708Z,98458.55
2023-04-10T11:15:58.514Z,98453.80
2023-04-10T11:20:35.027Z,98451.95
2023-04-10T11:24:58.658Z,98450.59
2023-04-10T11:29:15.268Z,98441.84
2023-04-10T11:33:27.031Z,98438.61
2023-04-10T11:37:04.842Z,98434.84
2023-04-10T11:41:39.739Z,98428.20
2023-04-10T11:46:26.755Z,98425.05
2023-04-10T11:50:33.793Z,98422.76
2023-04-10T11:54:52.660Z,98418.09
2023-04-10T11:59:28.224Z,98419.62
2023-04-10T12:03:38.828Z,98410.38
2023-04-10T12:08:07.759Z,98413.30
2023-04-10T12:12:25.544Z,98409.80
2023-04-10T12:16:33.265Z,98401.46
2023-04-10T12:20:39.981Z,98397.42
2023-04-10T12:25:25.785Z,98382.14
2023-04-10T12:29:44.654Z,98373.32
2023-04-10T12:33:30.965Z,98367.70
2023-04-10T12:40:36.362Z,98362.83
2023-04-10T12:44:50.218Z,98356.27
2023-04-10T12:48:34.817Z,98350.26
2023-04-10T12:52:37.996Z,98349.90
2023-04-10T12:56:34.013Z,98346.52
2023-04-10T13:00:33.074Z,98343.09
2023-04-10T13:03:41.176Z,98337.17
2023-04-10T13:07:37.472Z,98334.71
2023-04-10T13:11:09.381Z,98325.77
2023-04-10T13:14:21.483Z,98322.45
2023-04-10T13:17:54.472Z,98320.70
2023-04-10T13:21:32.792Z,98316.33
2023-04-10T13:24:41.609Z,98311.33
2023-04-10T13:28:03.169Z,98306.34
2023-04-10T13:31:23.198Z,98300.05
2023-04-10T13:35:22.429Z,98291.60
2023-04-10T13:38:55.466Z,98279.19
2023-04-10T13:42:05.498Z,98277.67
2023-04-10T13:45:33.619Z,98276.27
2023-04-10T13:49:05.968Z,98269.03
2023-04-10T13:52:13.900Z,98261.16
2023-04-10T13:55:38.009Z,98255.35
2023-04-10T13:59:02.606Z,98254.13
2023-04-10T14:02:37.643Z,98250.52
2023-04-10T14:05:55.993Z,98246.77
2023-04-10T14:09:22.635Z,98249.24
2023-04-10T14:12:45.452Z,98245.70
2023-04-10T14:16:39.148Z,98241.95
2023-04-10T14:19:53.737Z,98234.25
2023-04-10T14:23:22.473Z,98223.89
2023-04-10T14:27:04.939Z,98223.74
2023-04-10T14:30:39.178Z,98217.88
2023-04-10T14:33:48.313Z,98213.29
2023-04-10T14:37:37.476Z,98209.54
2023-04-10T14:40:58.600Z,98209.55
2023-04-10T14:44:35.977Z,98208.02
2023-04-10T14:47:42.587Z,98200.85
2023-04-10T14:51:01.219Z,98194.61
2023-04-10T14:54:28.928Z,98192.08
2023-04-10T14:58:18.660Z,98186.77
2023-04-10T15:01:31.520Z,98190.95
2023-04-10T15:04:55.735Z,98190.91
2023-04-10T15:08:23.795Z,98183.98
2023-04-10T15:11:27.359Z,98180.94
2023-04-10T15:14:30.944Z,98180.39
2023-04-10T15:17:33.871Z,98175.58
2023-04-10T15:20:41.135Z,98172.10
2023-04-10T15:23:44.081Z,98168.91
2023-04-10T15:26:47.460Z,98169.14
2023-04-10T15:29:50.359Z,98167.08
2023-04-10T15:32:53.292Z,98165.23
2023-04-10T15:35:56.309Z,98162.98
2023-04-10T15:39:03.785Z,98162.11
2023-04-10T15:42:08.341Z,98161.84
2023-04-10T15:45:11.348Z,98162.23
2023-04-10T15:48:14.237Z,98166.48
2023-04-10T15:51:18.763Z,98166.02
2023-04-10T15:54:21.701Z,98166.02
2023-04-10T15:57:25.213Z,98168.87
2023-04-10T16:00:28.049Z,98165.53
2023-04-10T16:03:31.049Z,98168.08
2023-04-10T16:06:35.179Z,98160.27
2023-04-10T16:09:38.203Z,98157.35
2023-04-10T16:12:41.854Z,98157.21
2023-04-10T16:15:45.607Z,98151.52
2023-04-10T16:18:54.288Z,98147.60
2023-04-10T16:21:57.448Z,98147.92
2023-04-10T16:25:00.617Z,98143.02
2023-04-10T16:28:06.614Z,98138.00
2023-04-10T16:31:09.843Z,98132.97
2023-04-10T16:34:12.733Z,98134.17
2023-04-10T16:37:15.748Z,98131.21
2023-04-10T16:40:19.099Z,98121.02
2023-04-10T16:43:23.217Z,98114.78
2023-04-10T16:46:27.197Z,98114.32
2023-04-10T16:49:30.534Z,98120.83
2023-04-10T16:52:33.477Z,98113.33
2023-04-10T16:55:36.341Z,98114.63
2023-04-10T16:58:41.242Z,98115.29
2023-04-10T17:01:44.488Z,98107.27
2023-04-10T17:04:47.385Z,98102.73
2023-04-10T17:07:50.275Z,98102.20
2023-04-10T17:10:53.102Z,98111.31
2023-04-10T17:13:55.910Z,98112.94
2023-04-10T17:16:58.725Z,98113.96
2023-04-10T17:20:01.984Z,98116.95
2023-04-10T17:23:04.816Z,98111.54
2023-04-10T17:26:13.018Z,98113.90
2023-04-10T17:29:15.994Z,98111.08
2023-04-10T17:32:19.202Z,98112.47
2023-04-10T17:35:22.272Z,98113.33
2023-04-10T17:38:25.888Z,98121.30
2023-04-10T17:41:29.020Z,98123.34
2023-04-10T17:44:32.374Z,98123.02
2023-04-10T17:47:36.122Z,98120.27
2023-04-10T17:50:39.362Z,98121.88
2023-04-10T17:53:42.620Z,98125.52
2023-04-10T17:56:45.451Z,98127.86
2023-04-10T17:59:48.851Z,98130.95
2023-04-10T18:02:58.047Z,98135.77
2023-04-10T18:06:01.190Z,98136.19
2023-04-10T18:09:04.530Z,98138.77
2023-04-10T18:12:07.680Z,98139.82
2023-04-10T18:15:11.017Z,98133.87
2023-04-10T18:18:14.311Z,98129.05
2023-04-10T18:21:19.015Z,98124.69
2023-04-10T18:24:22.479Z,98124.29
2023-04-10T18:27:25.549Z,98125.09
2023-04-10T18:30:28.635Z,98123.55
2023-04-10T18:33:31.806Z,98120.20
2023-04-10T18:36:35.292Z,98113.12
2023-04-10T18:39:38.426Z,98117.46
2023-04-10T18:42:41.521Z,98113.24
2023-04-10T18:45:44.737Z,98110.63
2023-04-10T18:48:50.426Z,98109.80
2023-04-10T18:51:53.887Z,98111.26
2023-04-10T18:54:57.105Z,98110.19
2023-04-10T18:58:00.153Z,98106.36
2023-04-10T19:01:03.605Z,98103.46
2023-04-10T19:04:06.962Z,98101.80
2023-04-10T19:07:10.247Z,98098.36
2023-04-10T19:10:13.276Z,98097.01
2023-04-10T19:13:16.248Z,98086.98
2023-04-10T19:16:20.565Z,98085.91
2023-04-10T19:19:23.940Z,98087.59
2023-04-10T19:22:26.865Z,98085.97
2023-04-10T19:25:29.795Z,98089.35
2023-04-10T19:28:34.712Z,98085.77
2023-04-10T19:31:37.588Z,98083.35
2023-04-10T19:34:40.524Z,98078.66
2023-04-10T19:37:47.768Z,98081.07
2023-04-10T19:40:58.317Z,98091.58
2023-04-10T19:44:01.299Z,98086.78
2023-04-10T19:47:04.512Z,98085.00
2023-04-10T19:50:08.249Z,98081.84
2023-04-10T19:53:13.022Z,98082.48
2023-04-10T19:56:17.039Z,98078.00
2023-04-10T19:59:23.005Z,98073.02
2023-04-10T20:02:26.109Z,98069.08
2023-04-10T20:05:29.415Z,98062.31
2023-04-10T20:08:32.381Z,98060.73
2023-04-10T20:11:35.242Z,98055.17
2023-04-10T20:14:38.567Z,98056.03
2023-04-10T20:17:41.464Z,98049.99
2023-04-10T20:20:44.828Z,98043.21
2023-04-10T20:23:47.859Z,98042.91
2023-04-10T20:26:53.317Z,98045.12
2023-04-10T20:29:56.211Z,98052.92
2023-04-10T20:32:59.369Z,98056.31
2023-04-10T20:36:02.590Z,98052.98
2023-04-10T20:39:05.565Z,98051.48
2023-04-10T20:42:08.393Z,98046.27
2023-04-10T20:45:11.832Z,98043.07
2023-04-10T20:48:14.669Z,98043.77
2023-04-10T20:51:17.498Z,98042.88
2023-04-10T20:54:23.332Z,98041.33
2023-04-10T20:57:26.162Z,98032.14
2023-04-10T21:00:31.079Z,98024.19
2023-04-10T21:03:36.044Z,98025.05
2023-04-10T21:06:41.658Z,98020.98
2023-04-10T21:09:44.634Z,98010.42
2023-04-10T21:12:47.473Z,98001.92
2023-04-10T21:15:52.348Z,97993.64
2023-04-10T21:18:55.473Z,97991.02
2023-04-10T21:21:58.739Z,97985.86
2023-04-10T21:25:01.554Z,97981.89
2023-04-10T21:28:04.482Z,97978.27
2023-04-10T21:31:10.833Z,97972.25
2023-04-10T21:34:15.247Z,97968.42
2023-04-10T21:37:18.064Z,97961.08
2023-04-10T21:40:21.058Z,97955.05
2023-04-10T21:43:23.912Z,97947.85
2023-04-10T21:46:26.843Z,97945.55
2023-04-10T21:49:29.761Z,97945.04
2023-04-10T21:52:32.653Z,97947.52
2023-04-10T21:55:35.573Z,97945.31
2023-04-10T21:58:38.497Z,97948.39
2023-04-10T22:01:41.987Z,97949.89
2023-04-10T22:04:53.810Z,97946.56
2023-04-10T22:07:57.813Z,97943.16
2023-04-10T22:11:00.662Z,97941.85
2023-04-10T22:14:16.073Z,97939.66
2023-04-10T22:17:20.317Z,97937.64
2023-04-10T22:20:23.181Z,97930.26
2023-04-10T22:23:26.288Z,97932.21
2023-04-10T22:26:29.189Z,97932.10
2023-04-10T22:29:34.005Z,97928.55
2023-04-10T22:32:37.093Z,97924.67
2023-04-10T22:35:40.163Z,97919.77
2023-04-10T22:38:43.176Z,97915.10
2023-04-10T22:41:46.128Z,97908.86
2023-04-10T22:44:49.053Z,97904.13
2023-04-10T22:47:51.855Z,97899.02
2023-04-10T22:50:54.727Z,97893.86
2023-04-10T22:53:57.727Z,97892.02
2023-04-10T22:57:00.904Z,97889.29
2023-04-10T23:00:04.449Z,97887.89
2023-04-10T23:03:07.326Z,97883.30
2023-04-10T23:06:10.275Z,97877.15
2023-04-10T23:09:13.229Z,97873.79
2023-04-10T23:12:16.091Z,97870.01
2023-04-10T23:15:19.054Z,97859.70
2023-04-10T23:18:22.408Z,97855.73
2023-04-10T23:21:25.370Z,97851.11
2023-04-10T23:24:28.341Z,97843.41
2023-04-10T23:27:31.251Z,97841.66
2023-04-10T23:30:35.746Z,97835.66
2023-04-10T23:33:38.628Z,97833.83
2023-04-10T23:36:42.062Z,97828.60
2023-04-10T23:39:44.883Z,97823.79
2023-04-10T23:42:47.748Z,97817.31
2023-04-10T23:45:50.601Z,97809.81
2023-04-10T23:48:54.997Z,97800.52
2023-04-10T23:51:57.984Z,97798.83
2023-04-10T23:55:00.880Z,97797.16
2023-04-10T23:58:03.747Z,97794.11
